Airfield :
LOGIN :

Register | Disclaimer

   EN    FR    IT 

 










Legend :    VFR   Marginal VFR   IFR   Intensive IFR   Very Intensive IFR
Visi :
Ceiling :
>= 8 km
>= 3000ft
5 to 8 km
1000 to 3000 ft
1500m to 5 km
500 to 1000 ft
800 to 1500m
200 to 500 ft
< 800m
< 200 ft
Symbols :   Thunderstorms  Fog  Heavy snow  Heavy precipitations  Wind > 20 kt
SIGMETs :     Misc.  Thunderstorms  Icing  Turbulence  Mountain Waves  Volcanic Ashes







- Airport Elevation : 1302 ft
- IATA code : GNB
- Download approach charts


LFLS - Grenoble / St. Geoirs

CURRENT METAR :
  • 211700Z AUTO 34009KT 310V030 9999 FEW070 SCT096 BKN130 24/13 Q1013 TEMPO FEW040TCU SCT050

EXPIRED METARs :
  • 211630Z AUTO 34010KT CAVOK 24/13 Q1013 TEMPO FEW040TCU SCT050
  • 211600Z AUTO 32009KT 290V360 9999 FEW043 25/14 Q1013 TEMPO SHRA BECMG FEW040TCU SCT050
  • 211530Z AUTO 34009KT 290V020 CAVOK 24/13 Q1014 TEMPO SHRA BECMG FEW040TCU SCT050
  • 211500Z AUTO 33010KT 9999 FEW042 BKN120 25/13 Q1014 TEMPO SHRA SCT040TCU
  • 211430Z AUTO 35007KT 320V030 9999 FEW043 SCT066 BKN120 24/14 Q1014 TEMPO SHRA SCT040TCU

TAF TAF LFLS
Valid from the 21 at 15:00 until the 22 at 15:00 UTC


211400Z 2115/2215 35008KT 9999 FEW040TCU SCT050
PROB30
TEMPO 2115/2117 5000 SHRA SCT040TCU
BECMG 2118/2120 CAVOK
TEMPO 2200/2208 VRB03KT
BECMG 2207/2209 SCT045
ATIS : +33 4 76 65 55 89
No reported NOTAMs for that airfield.



MET'MAP, your aeronautical weather chart ! - Copyright ORBIFLY December 2007 - Disclaimer

ORBIFLY MET'MAP TEAM :

Programming & Development : Alexandra Zaïnal
Concept & Development : Baudouin d'Aumeries
Co-Development & Prog : Marc-Olivier Méhu
Technical & hardware support : Manuel Goepfert

Contact : metmap@orbifly.com




SOURCES & CREDITS :

   NOAA